Time;durP1;ratioP1;P1;durP2;ratioP2;P2;SDS_P1;SDS_P2;PMS_P1;PMS_P2;Temp;Humidity;BMP_temperature;BMP_pressure;BME280_temperature;BME280_humidity;BME280_pressure;Samples;Min_cycle;Max_cycle;Signal;HPM_P1;HPM_P2
2023/07/12 00:01:37;;;;;;;3.75;2.05;;;;;;;24.79;100.00;99613.56;6093536;23;20432;-88
2023/07/12 00:04:03;;;;;;;1.90;1.40;;;;;;;24.81;100.00;99618.69;6070395;23;20021;-88
2023/07/12 00:06:38;;;;;;;1.65;1.55;;;;;;;24.75;100.00;99604.63;6046719;23;20567;-88
2023/07/12 00:09:11;;;;;;;1.08;0.93;;;;;;;24.74;100.00;99603.09;6070049;23;20033;-88
2023/07/12 00:11:36;;;;;;;1.30;1.02;;;;;;;24.77;100.00;99619.03;6094096;23;20016;-88
2023/07/12 00:14:02;;;;;;;1.80;1.63;;;;;;;24.70;100.00;99608.34;6046825;23;19997;-88
2023/07/12 00:16:35;;;;;;;1.45;1.10;;;;;;;24.79;100.00;99629.84;6046743;23;20022;-88
2023/07/12 00:19:00;;;;;;;1.85;1.23;;;;;;;24.74;100.00;99625.81;6045892;23;20068;-87
2023/07/12 00:21:28;;;;;;;1.88;1.77;;;;;;;24.74;100.00;99634.31;6070511;23;20013;-88
2023/07/12 00:23:55;;;;;;;0.95;0.85;;;;;;;24.72;100.00;99633.31;6094690;23;20048;-88
2023/07/12 00:26:31;;;;;;;1.08;0.90;;;;;;;24.65;100.00;99629.06;6045693;23;20005;-88
2023/07/12 00:28:58;;;;;;;2.15;1.95;;;;;;;24.62;100.00;99624.47;6069740;23;20025;-87
2023/07/12 00:31:24;;;;;;;1.67;1.20;;;;;;;24.63;100.00;99620.31;6069921;23;20503;-88
2023/07/12 00:33:50;;;;;;;3.85;1.35;;;;;;;24.59;100.00;99619.88;6092874;23;20049;-88
2023/07/12 00:36:23;;;;;;;1.35;1.25;;;;;;;24.54;100.00;99623.59;6093070;23;20053;-88
2023/07/12 00:38:48;;;;;;;2.30;1.63;;;;;;;24.43;100.00;99609.63;6069508;23;20022;-88
2023/07/12 00:41:28;;;;;;;2.35;2.15;;;;;;;24.48;100.00;99623.69;6070475;23;20104;-88
2023/07/12 00:44:01;;;;;;;1.10;1.00;;;;;;;24.33;100.00;99606.44;6069969;23;20452;-87
2023/07/12 00:46:36;;;;;;;1.48;1.38;;;;;;;24.34;100.00;99605.16;6045840;23;20010;-88
2023/07/12 00:49:02;;;;;;;1.23;1.13;;;;;;;24.25;100.00;99596.31;6093262;23;20018;-88
2023/07/12 00:51:34;;;;;;;2.38;1.38;;;;;;;24.21;100.00;99579.63;6069727;23;20459;-87
2023/07/12 00:54:00;;;;;;;1.10;1.05;;;;;;;24.30;100.00;99586.94;6070427;23;20085;-88
2023/07/12 00:56:25;;;;;;;1.30;1.05;;;;;;;24.25;100.00;99573.63;6102443;23;20321;-87
2023/07/12 00:58:55;;;;;;;2.65;1.70;;;;;;;24.29;100.00;99579.75;6096601;23;20045;-88
2023/07/12 01:01:21;;;;;;;1.25;1.15;;;;;;;24.28;100.00;99578.19;6094892;23;20041;-88
2023/07/12 01:03:47;;;;;;;1.20;0.88;;;;;;;24.26;100.00;99570.25;6093461;23;20052;-88
2023/07/12 01:06:16;;;;;;;2.97;2.05;;;;;;;24.17;100.00;99561.41;6094920;23;20010;-88
2023/07/12 01:08:43;;;;;;;2.63;1.52;;;;;;;23.99;100.00;99545.97;6069058;23;20107;-88
2023/07/12 01:11:11;;;;;;;4.78;2.05;;;;;;;24.15;100.00;99571.22;6071070;23;20445;-88
2023/07/12 01:13:41;;;;;;;1.63;1.52;;;;;;;24.19;100.00;99564.44;6070419;23;20096;-88
2023/07/12 01:16:06;;;;;;;1.55;1.45;;;;;;;24.09;100.00;99547.84;6093681;23;20021;-88
2023/07/12 01:18:33;;;;;;;4.40;2.10;;;;;;;24.08;100.00;99525.72;6093307;23;20495;-88
2023/07/12 01:21:05;;;;;;;1.92;1.67;;;;;;;24.17;100.00;99552.91;6069689;23;20048;-87
2023/07/12 01:23:31;;;;;;;0.85;0.85;;;;;;;24.07;100.00;99547.63;6070316;23;20022;-88
2023/07/12 01:26:20;;;;;;;1.95;1.20;;;;;;;24.11;100.00;99564.31;6083440;23;20010;-88
2023/07/12 01:28:49;;;;;;;1.92;1.83;;;;;;;24.01;100.00;99549.81;6063345;23;20018;-88
2023/07/12 01:31:15;;;;;;;1.77;1.42;;;;;;;24.01;100.00;99543.38;6085926;23;20411;-87
2023/07/12 01:33:41;;;;;;;1.95;1.75;;;;;;;23.95;100.00;99529.28;6084858;23;20125;-88
2023/07/12 01:36:08;;;;;;;1.90;1.52;;;;;;;24.01;100.00;99541.31;6063948;23;20009;-88
2023/07/12 01:38:34;;;;;;;2.42;1.65;;;;;;;24.00;100.00;99539.00;6045816;23;20017;-88
2023/07/12 01:40:59;;;;;;;1.58;1.35;;;;;;;24.00;100.00;99536.16;6045865;23;20065;-88
2023/07/12 01:43:25;;;;;;;1.23;1.15;;;;;;;23.97;100.00;99532.38;6092756;23;20357;-88
2023/07/12 01:45:51;;;;;;;1.20;1.10;;;;;;;23.94;100.00;99541.19;6069091;23;20116;-88
2023/07/12 01:48:16;;;;;;;4.13;2.20;;;;;;;23.96;100.00;99545.00;6069113;23;20021;-88
2023/07/12 01:50:42;;;;;;;3.30;1.83;;;;;;;23.90;100.00;99530.16;6095506;23;20021;-87
2023/07/12 01:53:09;;;;;;;2.50;1.83;;;;;;;23.67;100.00;99503.53;6095374;23;20017;-88
2023/07/12 01:55:34;;;;;;;2.08;1.92;;;;;;;23.69;100.00;99512.25;6096067;23;20009;-88
2023/07/12 01:58:00;;;;;;;2.05;1.88;;;;;;;23.76;100.00;99525.78;6047206;23;20018;-88
2023/07/12 02:00:26;;;;;;;1.77;1.63;;;;;;;23.59;100.00;99499.81;6071149;23;20068;-87
2023/07/12 02:02:51;;;;;;;4.38;1.75;;;;;;;23.59;100.00;99511.13;6070314;23;20016;-88
2023/07/12 02:05:18;;;;;;;2.67;2.13;;;;;;;23.60;100.00;99521.91;6071487;23;20492;-88
2023/07/12 02:07:44;;;;;;;0.68;0.63;;;;;;;23.57;100.00;99527.91;6070054;23;20014;-88
2023/07/12 02:10:17;;;;;;;1.30;0.90;;;;;;;23.67;100.00;99546.75;6069526;23;20080;-88
2023/07/12 02:12:43;;;;;;;6.55;1.92;;;;;;;23.64;100.00;99545.03;6046011;23;20417;-88
2023/07/12 02:15:09;;;;;;;3.38;1.83;;;;;;;23.53;100.00;99545.19;6047229;23;20053;-87
2023/07/12 02:17:35;;;;;;;2.55;1.85;;;;;;;23.53;100.00;99550.09;6070480;23;20024;-88
2023/07/12 02:20:01;;;;;;;2.50;2.10;;;;;;;23.53;100.00;99561.41;6095407;23;20466;-87
2023/07/12 02:22:29;;;;;;;0.80;0.80;;;;;;;23.27;100.00;99521.63;6094725;23;20846;-88
2023/07/12 02:24:55;;;;;;;2.80;1.85;;;;;;;23.49;100.00;99560.97;6047297;23;20014;-88
2023/07/12 02:27:20;;;;;;;1.70;1.52;;;;;;;23.29;100.00;99522.66;6070921;23;20021;-88
2023/07/12 02:29:48;;;;;;;1.85;1.75;;;;;;;23.42;100.00;99544.56;6047987;23;20014;-88
2023/07/12 02:32:14;;;;;;;6.70;1.48;;;;;;;23.22;100.00;99526.84;6093734;23;20014;-88
2023/07/12 02:34:39;;;;;;;2.25;1.90;;;;;;;23.31;100.00;99545.50;6094405;23;20037;-87
2023/07/12 02:37:05;;;;;;;3.33;1.80;;;;;;;23.42;100.00;99562.31;6048027;23;20016;-88
2023/07/12 02:39:30;;;;;;;0.70;0.70;;;;;;;23.18;100.00;99532.03;6094322;23;20025;-87
2023/07/12 02:41:56;;;;;;;1.35;1.25;;;;;;;23.12;100.00;99525.72;6046476;23;20018;-88
2023/07/12 02:44:21;;;;;;;1.75;1.02;;;;;;;23.24;100.00;99546.13;6071129;23;20006;-87
2023/07/12 02:46:47;;;;;;;6.18;2.95;;;;;;;23.14;100.00;99542.91;6070061;23;20531;-88
2023/07/12 02:49:13;;;;;;;2.78;1.55;;;;;;;23.13;100.00;99535.72;6094592;23;20077;-88
2023/07/12 02:51:39;;;;;;;2.13;1.92;;;;;;;23.15;100.00;99538.78;6070902;23;20025;-88
2023/07/12 02:54:04;;;;;;;0.65;0.65;;;;;;;23.09;100.00;99557.88;6069914;23;20014;-87
2023/07/12 02:56:30;;;;;;;1.33;1.23;;;;;;;23.13;100.00;99564.00;6070341;23;20393;-87
2023/07/12 02:58:55;;;;;;;1.92;1.70;;;;;;;23.17;100.00;99570.13;6094652;23;20018;-88
2023/07/12 03:01:21;;;;;;;3.30;2.55;;;;;;;23.10;100.00;99572.78;6094490;23;20060;-88
2023/07/12 03:03:46;;;;;;;1.95;1.70;;;;;;;23.04;100.00;99560.81;6069743;23;20010;-88
2023/07/12 03:06:12;;;;;;;1.55;1.00;;;;;;;22.92;100.00;99574.34;6047967;23;20342;-87
2023/07/12 03:08:38;;;;;;;4.47;2.45;;;;;;;22.87;100.00;99572.31;6047126;23;20014;-88
2023/07/12 03:11:05;;;;;;;3.90;3.28;;;;;;;22.92;100.00;99613.94;6094200;23;20021;-88
2023/07/12 03:13:31;;;;;;;1.38;1.27;;;;;;;22.93;100.00;99618.25;6094164;23;20017;-87
2023/07/12 03:15:56;;;;;;;1.65;1.55;;;;;;;22.91;100.00;99618.03;6069885;23;20010;-87
2023/07/12 03:18:22;;;;;;;1.27;0.98;;;;;;;22.94;100.00;99625.47;6093827;23;20381;-88
2023/07/12 03:20:48;;;;;;;1.95;1.45;;;;;;;22.98;100.00;99651.38;6071049;23;20538;-88
2023/07/12 03:23:13;;;;;;;1.75;1.60;;;;;;;22.93;100.00;99648.63;6046424;23;20013;-88
2023/07/12 03:25:39;;;;;;;1.42;1.25;;;;;;;22.90;100.00;99646.84;6046466;23;20022;-88
2023/07/12 03:28:04;;;;;;;1.50;1.00;;;;;;;22.91;100.00;99668.94;6070412;23;20018;-87
2023/07/12 03:30:30;;;;;;;3.08;2.00;;;;;;;22.91;100.00;99666.13;6071072;23;20101;-87
2023/07/12 03:32:55;;;;;;;1.38;1.20;;;;;;;22.87;100.00;99639.44;6093965;23;20029;-87
2023/07/12 03:35:21;;;;;;;2.58;1.70;;;;;;;22.76;100.00;99623.38;6070241;23;20024;-87
2023/07/12 03:37:46;;;;;;;1.25;1.15;;;;;;;22.70;100.00;99628.31;6070514;23;20117;-87
2023/07/12 03:40:12;;;;;;;3.90;1.98;;;;;;;22.79;100.00;99644.91;6093758;23;20013;-87
2023/07/12 03:42:37;;;;;;;1.27;1.17;;;;;;;22.85;100.00;99648.44;6068874;23;20018;-87
2023/07/12 03:45:03;;;;;;;1.27;1.17;;;;;;;22.83;100.00;99619.16;6094586;23;20046;-93
2023/07/12 03:47:29;;;;;;;1.42;1.13;;;;;;;22.92;100.00;99616.75;6048103;23;20018;-92
2023/07/12 03:49:55;;;;;;;1.65;1.55;;;;;;;22.94;100.00;99602.84;6096338;23;20691;-93
2023/07/12 03:52:21;;;;;;;3.03;2.08;;;;;;;22.98;100.00;99599.69;6096266;23;20006;-91
2023/07/12 03:54:47;;;;;;;2.90;2.55;;;;;;;23.03;100.00;99601.69;6095297;23;20104;-94
2023/07/12 03:57:12;;;;;;;1.90;1.58;;;;;;;23.14;100.00;99616.47;6071903;23;20381;-92
2023/07/12 03:59:38;;;;;;;1.60;1.42;;;;;;;23.18;100.00;99608.44;6095859;23;20018;-94
2023/07/12 04:02:03;;;;;;;7.53;1.92;;;;;;;23.19;100.00;99604.31;6094385;23;20060;-87
2023/07/12 04:04:29;;;;;;;1.50;1.40;;;;;;;23.24;100.00;99597.06;6128158;23;20073;-87
2023/07/12 04:06:54;;;;;;;2.03;1.80;;;;;;;23.27;100.00;99583.88;6051247;23;20159;-87
2023/07/12 04:09:20;;;;;;;2.63;2.42;;;;;;;23.31;100.00;99584.34;6093476;23;20017;-87
2023/07/12 04:11:45;;;;;;;1.60;1.50;;;;;;;23.26;100.00;99566.13;6092883;23;20018;-87
2023/07/12 04:14:11;;;;;;;6.25;1.73;;;;;;;23.40;100.00;99570.59;6094383;23;20048;-87
2023/07/12 04:16:36;;;;;;;2.25;2.05;;;;;;;23.52;100.00;99565.53;6071030;23;20018;-87
2023/07/12 04:19:02;;;;;;;1.63;1.48;;;;;;;23.52;100.00;99574.81;6069899;23;20024;-87
2023/07/12 04:21:27;;;;;;;1.17;1.10;;;;;;;23.33;100.00;99528.75;6094522;23;20005;-87
2023/07/12 04:23:53;;;;;;;4.88;3.08;;;;;;;23.64;100.00;99575.41;6093299;23;20448;-88
2023/07/12 04:26:20;;;;;;;0.98;0.98;;;;;;;23.65;100.00;99588.25;6045604;23;20018;-87
2023/07/12 04:28:49;;;;;;;2.78;2.58;;;;;;;23.74;100.00;99602.00;6069844;23;20401;-87
2023/07/12 04:31:16;;;;;;;2.35;1.92;;;;;;;23.77;100.00;99615.09;6046807;23;20393;-87
2023/07/12 04:33:42;;;;;;;1.85;1.30;;;;;;;23.76;100.00;99616.41;6067925;23;20018;-87
2023/07/12 04:36:09;;;;;;;3.05;1.88;;;;;;;23.83;100.00;99623.50;6093211;23;20460;-87
2023/07/12 04:38:35;;;;;;;1.73;1.40;;;;;;;23.84;100.00;99614.47;6070804;23;20064;-87
2023/07/12 04:41:01;;;;;;;1.70;1.48;;;;;;;23.67;100.00;99582.81;6119343;23;20010;-87
2023/07/12 04:43:27;;;;;;;0.93;0.90;;;;;;;23.95;100.00;99622.78;6093580;23;20014;-90
2023/07/12 04:45:53;;;;;;;1.45;1.00;;;;;;;24.05;100.00;99623.91;6099558;23;20014;-87
2023/07/12 04:48:19;;;;;;;1.52;1.23;;;;;;;24.00;100.00;99607.75;6075301;23;20024;-88
2023/07/12 04:50:44;;;;;;;2.17;1.85;;;;;;;24.18;100.00;99628.13;6074866;23;20025;-89
2023/07/12 04:53:12;;;;;;;1.45;1.35;;;;;;;24.30;100.00;99632.28;6070177;23;20014;-89
2023/07/12 04:55:37;;;;;;;2.17;1.98;;;;;;;24.40;100.00;99656.06;6092825;23;20009;-88
2023/07/12 04:58:03;;;;;;;1.30;0.98;;;;;;;24.37;100.00;99648.66;6093447;23;20017;-88
2023/07/12 05:00:28;;;;;;;2.88;2.55;;;;;;;24.44;100.00;99642.34;6120412;23;20018;-89
2023/07/12 05:02:54;;;;;;;1.60;1.50;;;;;;;24.66;100.00;99655.34;6045736;23;20021;-89
2023/07/12 05:05:20;;;;;;;1.80;1.58;;;;;;;24.79;100.00;99664.63;6068904;23;20112;-88
2023/07/12 05:07:47;;;;;;;1.38;1.27;;;;;;;24.78;100.00;99682.97;6045719;23;20719;-89
2023/07/12 05:10:13;;;;;;;3.20;1.67;;;;;;;24.86;100.00;99678.19;6070397;23;20033;-88
2023/07/12 05:12:40;;;;;;;1.20;1.15;;;;;;;24.99;100.00;99666.84;6045660;23;20018;-88
2023/07/12 05:15:07;;;;;;;1.35;1.25;;;;;;;25.13;100.00;99659.09;6093415;23;20014;-88
2023/07/12 05:17:33;;;;;;;1.05;1.05;;;;;;;25.27;100.00;99669.13;6045624;23;20016;-89
2023/07/12 05:19:59;;;;;;;1.13;0.98;;;;;;;25.44;100.00;99663.84;6094894;23;20018;-88
2023/07/12 05:22:24;;;;;;;1.80;1.15;;;;;;;25.51;100.00;99648.22;6071330;23;20014;-89
2023/07/12 05:24:50;;;;;;;2.70;1.98;;;;;;;25.71;100.00;99652.44;6070355;23;20352;-88
2023/07/12 05:27:16;;;;;;;1.83;1.67;;;;;;;25.82;100.00;99667.16;6070861;23;20006;-89
2023/07/12 05:29:41;;;;;;;4.90;2.33;;;;;;;25.72;100.00;99649.03;6095973;23;20013;-88
2023/07/12 05:32:07;;;;;;;1.77;1.58;;;;;;;25.78;100.00;99658.22;6096076;23;20496;-88
2023/07/12 05:34:33;;;;;;;2.22;1.85;;;;;;;25.73;100.00;99644.13;6095869;23;20026;-88
2023/07/12 05:36:58;;;;;;;0.77;0.77;;;;;;;25.71;100.00;99626.88;6045766;23;20033;-89
2023/07/12 05:39:24;;;;;;;1.95;1.35;;;;;;;25.95;100.00;99660.66;6092169;23;20073;-88
2023/07/12 05:41:49;;;;;;;8.65;3.78;;;;;;;25.90;100.00;99636.75;6095944;23;20065;-89
2023/07/12 05:44:15;;;;;;;1.02;1.00;;;;;;;25.94;100.00;99637.16;6121890;23;20025;-88
2023/07/12 05:46:41;;;;;;;2.03;1.83;;;;;;;26.07;100.00;99655.47;6072829;23;20022;-88
2023/07/12 05:49:06;;;;;;;1.63;1.52;;;;;;;26.00;100.00;99649.16;6096350;23;20388;-89
2023/07/12 05:51:32;;;;;;;3.00;2.22;;;;;;;26.02;100.00;99671.34;6071974;23;20014;-89
2023/07/12 05:53:57;;;;;;;1.23;1.02;;;;;;;25.92;100.00;99673.16;6071678;23;20029;-89
2023/07/12 05:56:23;;;;;;;2.30;1.73;;;;;;;25.86;100.00;99664.75;6095567;23;20072;-89
2023/07/12 05:58:48;;;;;;;1.90;1.80;;;;;;;25.76;100.00;99665.78;6047566;23;20040;-89
2023/07/12 06:01:14;;;;;;;2.03;1.90;;;;;;;25.83;100.00;99673.63;6071009;23;20073;-89
2023/07/12 06:03:41;;;;;;;1.33;1.23;;;;;;;25.75;100.00;99664.25;6095050;23;20089;-89
2023/07/12 06:06:08;;;;;;;4.13;1.65;;;;;;;25.88;100.00;99679.16;6071123;23;20460;-89
2023/07/12 06:08:34;;;;;;;2.50;1.90;;;;;;;25.96;100.00;99671.47;6072448;23;20433;-89
2023/07/12 06:10:59;;;;;;;0.75;0.73;;;;;;;26.08;100.00;99665.53;6093028;23;20021;-89
2023/07/12 06:13:25;;;;;;;2.45;1.88;;;;;;;26.17;100.00;99650.81;6069292;23;20859;-89
2023/07/12 06:15:51;;;;;;;4.40;1.98;;;;;;;26.25;100.00;99631.78;6068870;23;20028;-89
2023/07/12 06:18:16;;;;;;;2.50;1.88;;;;;;;26.34;100.00;99625.59;6092083;23;20018;-89
2023/07/12 06:20:42;;;;;;;1.95;1.25;;;;;;;26.61;100.00;99641.16;6069902;23;20523;-89
2023/07/12 06:23:07;;;;;;;2.03;1.83;;;;;;;26.81;100.00;99637.50;6092049;23;20014;-89
2023/07/12 06:25:33;;;;;;;2.20;2.00;;;;;;;26.74;100.00;99618.31;6067925;23;20101;-89
2023/07/12 06:27:58;;;;;;;12.13;2.10;;;;;;;27.03;100.00;99621.16;6093668;23;20028;-89
2023/07/12 06:30:24;;;;;;;1.00;1.00;;;;;;;27.13;100.00;99610.78;6068168;23;20029;-89
2023/07/12 06:32:49;;;;;;;3.10;2.20;;;;;;;27.47;100.00;99627.66;6069933;23;20433;-89
2023/07/12 06:35:15;;;;;;;1.50;1.40;;;;;;;27.72;100.00;99631.53;6070967;23;20045;-89
2023/07/12 06:37:40;;;;;;;1.85;1.67;;;;;;;27.74;100.00;99606.81;6068583;23;20016;-89
2023/07/12 06:40:06;;;;;;;2.78;1.90;;;;;;;27.92;100.00;99619.22;6068707;23;20018;-89
2023/07/12 06:42:33;;;;;;;7.05;1.58;;;;;;;27.91;100.00;99588.41;6072206;23;20341;-89
2023/07/12 06:44:58;;;;;;;1.52;1.42;;;;;;;28.12;100.00;99617.56;6071832;23;20006;-89
2023/07/12 06:47:24;;;;;;;1.30;1.20;;;;;;;28.02;100.00;99608.03;6047727;23;20014;-88
2023/07/12 06:49:49;;;;;;;1.60;1.50;;;;;;;28.03;100.00;99604.59;6047920;23;20028;-89
2023/07/12 06:52:15;;;;;;;2.55;1.35;;;;;;;28.00;100.00;99607.81;6047571;23;20014;-89
2023/07/12 06:54:43;;;;;;;3.40;1.92;;;;;;;27.91;100.00;99586.34;6071860;23;20503;-89
2023/07/12 06:57:08;;;;;;;1.50;1.40;;;;;;;27.85;100.00;99587.84;6095040;23;20022;-88
2023/07/12 06:59:34;;;;;;;3.78;1.60;;;;;;;27.71;100.00;99588.03;6095929;23;20427;-89
2023/07/12 07:01:59;;;;;;;1.85;1.38;;;;;;;27.30;100.00;99559.78;6094785;23;20377;-89
2023/07/12 07:04:25;;;;;;;1.77;1.55;;;;;;;27.44;100.00;99583.19;6047983;23;20463;-90
2023/07/12 07:06:50;;;;;;;1.52;1.40;;;;;;;27.46;100.00;99598.38;6071670;23;20014;-89
2023/07/12 07:09:16;;;;;;;3.58;1.92;;;;;;;27.29;100.00;99583.91;6095904;23;20022;-89
2023/07/12 07:11:42;;;;;;;3.08;1.27;;;;;;;27.37;100.00;99584.69;6096203;23;20021;-89
2023/07/12 07:14:07;;;;;;;2.13;1.92;;;;;;;27.28;100.00;99576.69;6094726;23;20020;-89
2023/07/12 07:16:33;;;;;;;5.38;2.05;;;;;;;27.50;100.00;99580.97;6082738;23;20080;-89
2023/07/12 07:18:58;;;;;;;1.52;1.10;;;;;;;27.43;100.00;99558.88;6093878;23;20092;-89
2023/07/12 07:21:24;;;;;;;2.97;2.42;;;;;;;27.79;100.00;99603.03;6069926;23;20018;-88
2023/07/12 07:23:50;;;;;;;3.13;2.08;;;;;;;27.67;100.00;99567.69;6067522;23;20088;-89
2023/07/12 07:26:15;;;;;;;2.30;1.83;;;;;;;27.91;100.00;99583.47;6094679;23;20010;-89
2023/07/12 07:28:41;;;;;;;2.40;2.00;;;;;;;28.12;100.00;99612.63;6095424;23;20014;-89
2023/07/12 07:31:07;;;;;;;2.17;1.98;;;;;;;28.13;100.00;99613.38;6047988;23;20052;-89
2023/07/12 07:33:33;;;;;;;1.67;1.52;;;;;;;28.17;100.00;99622.31;6071171;23;20057;-89
2023/07/12 07:35:59;;;;;;;2.65;1.67;;;;;;;28.19;100.00;99622.50;6095622;23;20010;-89
2023/07/12 07:38:28;;;;;;;1.92;1.67;;;;;;;28.09;100.00;99619.47;6071549;23;20120;-89
2023/07/12 07:40:55;;;;;;;1.75;1.58;;;;;;;28.06;100.00;99616.97;6048751;23;20022;-89
2023/07/12 07:43:21;;;;;;;3.33;1.65;;;;;;;27.91;100.00;99588.41;6094541;23;20025;-89
2023/07/12 07:45:47;;;;;;;7.88;2.53;;;;;;;27.74;100.00;99584.03;6072082;23;20005;-89
2023/07/12 07:48:15;;;;;;;2.45;2.13;;;;;;;27.81;100.00;99566.19;6069801;23;20041;-89
2023/07/12 07:50:41;;;;;;;1.63;1.52;;;;;;;27.70;100.00;99555.16;6095200;23;20121;-89
2023/07/12 07:53:07;;;;;;;1.95;1.75;;;;;;;27.87;100.00;99556.69;6071465;23;20045;-89
2023/07/12 07:55:32;;;;;;;2.70;2.20;;;;;;;27.92;100.00;99535.78;6071595;23;20057;-89
2023/07/12 07:57:58;;;;;;;1.40;1.30;;;;;;;27.98;100.00;99540.00;6094315;23;20380;-89
2023/07/12 08:00:24;;;;;;;1.83;1.52;;;;;;;28.03;100.00;99541.09;6071738;23;20080;-89
2023/07/12 08:02:50;;;;;;;1.58;1.20;;;;;;;28.18;100.00;99546.84;6069606;23;20469;-89
2023/07/12 08:05:16;;;;;;;3.00;2.08;;;;;;;28.66;100.00;99556.28;6071419;23;20006;-89
2023/07/12 08:07:46;;;;;;;2.33;2.13;;;;;;;29.16;100.00;99554.41;6095999;23;20429;-89
2023/07/12 08:10:14;;;;;;;2.90;2.30;;;;;;;29.84;100.00;99556.91;6071195;23;20079;-89
2023/07/12 08:12:39;;;;;;;2.53;1.75;;;;;;;30.23;96.97;99546.69;6094612;23;20034;-89
2023/07/12 08:15:05;;;;;;;3.38;1.95;;;;;;;30.70;90.68;99553.47;6046927;23;20013;-90
2023/07/12 08:17:31;;;;;;;4.18;2.70;;;;;;;30.93;86.79;99559.72;6074879;23;20013;-90
2023/07/12 08:19:57;;;;;;;4.45;1.88;;;;;;;31.36;85.81;99567.59;6108769;23;20002;-89
2023/07/12 08:22:24;;;;;;;2.08;1.88;;;;;;;31.78;83.90;99555.94;6099105;23;20444;-89
2023/07/12 08:24:50;;;;;;;2.20;2.00;;;;;;;31.65;76.35;99501.09;6071259;23;20028;-89
2023/07/12 08:27:18;;;;;;;2.13;1.95;;;;;;;31.91;74.94;99514.59;6071351;23;20033;-89
2023/07/12 08:29:43;;;;;;;2.35;2.15;;;;;;;32.10;76.88;99511.84;6070868;23;20037;-89
2023/07/12 08:32:10;;;;;;;3.10;1.85;;;;;;;32.27;74.29;99513.84;6094625;23;20017;-90
2023/07/12 08:34:35;;;;;;;2.05;1.80;;;;;;;32.23;76.33;99505.66;6071623;23;20508;-90
2023/07/12 08:37:01;;;;;;;2.00;1.63;;;;;;;32.32;76.89;99493.44;6070580;23;20045;-88
2023/07/12 08:39:27;;;;;;;3.55;2.33;;;;;;;32.46;77.37;99495.88;6094509;23;20037;-88
2023/07/12 08:41:52;;;;;;;1.92;1.77;;;;;;;32.55;74.62;99503.75;6094506;23;20010;-91
2023/07/12 08:44:18;;;;;;;2.38;2.17;;;;;;;32.95;73.62;99495.28;6047388;23;20010;-88
2023/07/12 08:46:56;;;;;;;3.13;2.53;;;;;;;32.92;71.45;99487.84;6067985;23;20441;-88
2023/07/12 08:49:23;;;;;;;1.77;1.67;;;;;;;32.66;71.27;99485.94;6068204;23;20483;-88
2023/07/12 08:51:50;;;;;;;3.20;2.55;;;;;;;32.83;74.42;99488.66;6092690;23;20032;-89
2023/07/12 08:54:33;;;;;;;2.22;2.03;;;;;;;33.20;69.67;99495.69;6066919;23;20029;-89
2023/07/12 08:57:11;;;;;;;2.67;2.33;;;;;;;33.18;69.75;99501.31;6046134;23;20351;-89
2023/07/12 08:59:37;;;;;;;2.47;1.60;;;;;;;33.29;69.45;99500.66;6120234;23;20089;-89
2023/07/12 09:02:03;;;;;;;2.50;2.15;;;;;;;33.69;66.02;99502.06;6070194;23;20384;-88
2023/07/12 09:04:33;;;;;;;3.22;2.20;;;;;;;33.59;62.53;99498.47;6070316;23;20452;-89
2023/07/12 09:07:04;;;;;;;1.55;1.45;;;;;;;33.70;63.50;99492.84;6071581;23;20002;-88
2023/07/12 09:09:35;;;;;;;2.53;2.22;;;;;;;33.81;60.94;99514.44;6093907;23;20069;-88
2023/07/12 09:12:04;;;;;;;1.73;1.63;;;;;;;34.12;62.14;99512.31;6069912;23;20362;-88
2023/07/12 09:14:35;;;;;;;2.03;1.80;;;;;;;34.34;56.51;99526.72;6047392;23;20013;-89
2023/07/12 09:17:00;;;;;;;1.98;1.33;;;;;;;34.26;58.98;99523.28;6093804;23;20024;-89
2023/07/12 09:19:31;;;;;;;2.90;2.45;;;;;;;33.91;59.06;99537.41;6120573;23;20097;-88
2023/07/12 09:22:03;;;;;;;2.47;1.98;;;;;;;33.65;59.78;99547.78;6046855;23;20014;-89
2023/07/12 09:24:31;;;;;;;1.70;1.55;;;;;;;33.73;62.09;99542.63;6069962;23;20018;-89
2023/07/12 09:27:05;;;;;;;1.95;1.83;;;;;;;33.82;60.07;99538.94;6069921;23;20024;-88
2023/07/12 09:29:33;;;;;;;2.13;1.58;;;;;;;33.80;60.88;99549.56;6094178;23;20024;-89
2023/07/12 09:32:15;;;;;;;1.73;1.63;;;;;;;34.24;60.60;99546.19;6045739;23;20017;-89
2023/07/12 09:34:41;;;;;;;2.30;1.80;;;;;;;34.67;57.12;99541.97;6072434;23;20460;-88
2023/07/12 09:37:22;;;;;;;2.10;1.80;;;;;;;34.81;53.50;99551.59;6072398;23;20028;-89
2023/07/12 09:39:58;;;;;;;2.05;1.85;;;;;;;34.79;52.65;99562.19;6048460;23;20020;-89
2023/07/12 09:42:25;;;;;;;1.75;1.58;;;;;;;34.89;50.06;99578.06;6096691;23;20042;-89
2023/07/12 09:44:52;;;;;;;1.67;1.58;;;;;;;34.95;47.23;99587.09;6072046;23;20025;-88
2023/07/12 09:47:41;;;;;;;2.50;2.17;;;;;;;34.85;48.48;99589.31;6096438;23;20025;-89
2023/07/12 09:50:14;;;;;;;2.35;1.55;;;;;;;34.85;45.21;99589.31;6072202;23;20326;-89
2023/07/12 09:53:09;;;;;;;1.92;1.77;;;;;;;34.72;43.14;99586.97;6073291;23;20076;-89
2023/07/12 09:55:43;;;;;;;1.45;1.00;;;;;;;34.73;43.58;99587.72;6074449;23;20029;-89
2023/07/12 09:58:09;;;;;;;1.88;1.33;;;;;;;34.66;43.54;99583.66;6075323;23;20018;-89
2023/07/12 10:00:52;;;;;;;1.00;1.00;;;;;;;34.87;42.60;99575.03;6075091;23;20064;-89
2023/07/12 10:03:27;;;;;;;0.82;0.82;;;;;;;34.77;40.21;99577.25;6096084;23;20093;-89
2023/07/12 10:06:07;;;;;;;1.13;1.13;;;;;;;34.57;39.28;99599.66;6048097;23;20022;-89
2023/07/12 10:09:00;;;;;;;1.05;0.73;;;;;;;34.07;40.44;99578.81;6096492;23;20444;-89
2023/07/12 10:11:43;;;;;;;1.33;1.17;;;;;;;34.01;41.03;99590.66;6084969;23;20026;-89
2023/07/12 10:14:11;;;;;;;1.48;1.33;;;;;;;34.32;41.28;99587.06;6100553;23;20460;-89
2023/07/12 10:16:45;;;;;;;1.23;0.82;;;;;;;34.14;39.89;99587.28;6096217;23;20057;-89
2023/07/12 10:19:17;;;;;;;0.45;0.43;;;;;;;34.02;40.33;99579.91;6095163;23;20022;-89
2023/07/12 10:21:42;;;;;;;2.20;1.52;;;;;;;34.18;40.37;99599.09;6122116;23;20014;-89
2023/07/12 10:24:14;;;;;;;0.90;0.90;;;;;;;34.00;40.39;99600.66;6095834;23;20389;-89
2023/07/12 10:26:40;;;;;;;0.70;0.70;;;;;;;33.89;40.90;99589.78;6071697;23;20109;-89
2023/07/12 10:29:17;;;;;;;1.02;0.93;;;;;;;33.61;41.22;99605.00;6096133;23;20443;-89
2023/07/12 10:31:46;;;;;;;1.05;1.05;;;;;;;33.47;41.96;99596.13;6072158;23;20014;-89
2023/07/12 10:34:41;;;;;;;0.50;0.50;;;;;;;33.41;42.29;99589.91;6095380;23;20018;-89
2023/07/12 10:37:14;;;;;;;0.52;0.52;;;;;;;33.60;41.23;99609.25;6120725;23;20029;-89
2023/07/12 10:39:40;;;;;;;0.47;0.47;;;;;;;33.66;42.58;99612.59;6071742;23;20013;-89
2023/07/12 10:42:12;;;;;;;2.25;0.85;;;;;;;33.53;41.53;99610.16;6095242;23;20010;-89
2023/07/12 10:44:40;;;;;;;;;;;;;;;33.21;42.25;99597.81;6048497;23;20395;-88
2023/07/12 10:47:10;;;;;;;1.63;1.05;;;;;;;33.14;43.70;99592.97;6095355;23;19923;-88
2023/07/12 10:50:17;;;;;;;0.85;0.75;;;;;;;33.29;42.18;99603.38;6047785;23;20018;-89
2023/07/12 10:52:59;;;;;;;0.68;0.68;;;;;;;33.09;42.86;99614.13;6072053;23;20381;-89
2023/07/12 10:55:47;;;;;;;0.80;0.80;;;;;;;32.92;43.32;99611.38;6072865;23;20053;-89
2023/07/12 10:58:23;;;;;;;0.60;0.60;;;;;;;32.92;42.68;99622.13;6072086;23;20014;-89
2023/07/12 11:00:56;;;;;;;0.32;0.32;;;;;;;32.96;43.21;99622.44;6067547;23;20097;-89
2023/07/12 11:03:33;;;;;;;0.65;0.60;;;;;;;33.02;43.27;99617.91;6069082;23;20519;-89
2023/07/12 11:06:05;;;;;;;0.70;0.70;;;;;;;33.45;43.08;99626.81;6095668;23;20020;-89
2023/07/12 11:08:30;;;;;;;1.15;0.98;;;;;;;33.83;43.63;99620.25;6070874;23;20436;-89
2023/07/12 11:11:00;;;;;;;0.73;0.50;;;;;;;34.02;41.80;99620.94;6094356;23;20029;-89
2023/07/12 11:13:30;;;;;;;0.98;0.85;;;;;;;34.25;41.04;99631.94;6092998;23;20014;-88
2023/07/12 11:16:04;;;;;;;0.52;0.52;;;;;;;34.35;40.50;99611.72;6093394;23;20017;-89
2023/07/12 11:18:36;;;;;;;0.30;0.30;;;;;;;34.52;40.25;99634.53;6067958;23;20026;-89
2023/07/12 11:21:08;;;;;;;0.82;0.77;;;;;;;34.55;40.40;99619.66;6093089;23;20010;-89
2023/07/12 11:23:36;;;;;;;3.20;1.02;;;;;;;34.64;39.57;99629.59;6093036;23;20022;-89
2023/07/12 11:26:21;;;;;;;0.30;0.30;;;;;;;34.63;39.70;99617.31;6093127;23;20010;-89
2023/07/12 11:28:47;;;;;;;0.32;0.30;;;;;;;34.73;40.17;99605.78;6069310;23;20338;-88
2023/07/12 11:31:40;;;;;;;1.02;0.77;;;;;;;35.05;38.70;99592.78;6094455;23;20111;-89